createdAt,value
2022-11-27T00:01:28.620Z,100865.19
2022-11-27T00:03:56.084Z,100856.63
2022-11-27T00:06:25.096Z,100861.63
2022-11-27T00:08:52.434Z,100869.31
2022-11-27T00:11:23.069Z,100870.34
2022-11-27T00:13:50.637Z,100868.28
2022-11-27T00:16:18.631Z,100865.75
2022-11-27T00:18:45.944Z,100867.53
2022-11-27T00:21:17.031Z,100865.66
2022-11-27T00:23:44.502Z,100855.59
2022-11-27T00:26:11.704Z,100868.66
2022-11-27T00:28:39.004Z,100860.66
2022-11-27T00:31:08.245Z,100865.09
2022-11-27T00:33:35.312Z,100849.19
2022-11-27T00:36:04.303Z,100863.94
2022-11-27T00:38:34.657Z,100866.47
2022-11-27T00:41:08.027Z,100861.88
2022-11-27T00:43:43.521Z,100871.63
2022-11-27T00:46:28.087Z,100855.88
2022-11-27T00:48:57.915Z,100865.34
2022-11-27T00:51:25.936Z,100866.47
2022-11-27T00:53:53.161Z,100857.00
2022-11-27T00:56:29.871Z,100859.38
2022-11-27T00:58:57.359Z,100851.63
2022-11-27T01:01:29.036Z,100847.53
2022-11-27T01:03:57.635Z,100855.22
2022-11-27T01:06:26.134Z,100860.28
2022-11-27T01:08:53.213Z,100859.38
2022-11-27T01:11:26.248Z,100857.56
2022-11-27T01:13:55.116Z,100860.09
2022-11-27T01:16:24.703Z,100856.72
2022-11-27T01:18:53.704Z,100853.53
2022-11-27T01:21:21.831Z,100852.19
2022-11-27T01:23:49.841Z,100859.06
2022-11-27T01:26:18.758Z,100855.47
2022-11-27T01:28:46.768Z,100859.91
2022-11-27T01:31:17.029Z,100855.41
2022-11-27T01:33:44.751Z,100857.34
2022-11-27T01:36:13.296Z,100858.38
2022-11-27T01:38:40.318Z,100862.78
2022-11-27T01:41:42.297Z,100862.44
2022-11-27T01:44:24.148Z,100860.53
2022-11-27T01:47:03.302Z,100857.09
2022-11-27T01:49:34.036Z,100860.38
2022-11-27T01:52:04.315Z,100864.69
2022-11-27T01:54:35.344Z,100872.56
2022-11-27T01:57:06.438Z,100870.03
2022-11-27T01:59:33.528Z,100870.97
2022-11-27T02:02:01.962Z,100863.94
2022-11-27T02:04:29.066Z,100860.19
2022-11-27T02:06:57.948Z,100870.53
2022-11-27T02:09:25.136Z,100867.25
2022-11-27T02:12:13.682Z,100873.59
2022-11-27T02:15:03.447Z,100871.06
2022-11-27T02:17:30.579Z,100871.06
2022-11-27T02:20:12.100Z,100873.59
2022-11-27T02:22:39.057Z,100872.94
2022-11-27T02:25:13.810Z,100882.44
2022-11-27T02:28:09.708Z,100883.16
2022-11-27T02:30:37.324Z,100872.75
2022-11-27T02:33:07.314Z,100865.97
2022-11-27T02:36:07.989Z,100872.94
2022-11-27T02:38:42.220Z,100882.50
2022-11-27T02:41:31.090Z,100873.03
2022-11-27T02:43:59.582Z,100880.66
2022-11-27T02:46:26.931Z,100877.84
2022-11-27T02:48:58.146Z,100875.13
2022-11-27T02:51:33.744Z,100874.00
2022-11-27T02:54:04.226Z,100882.63
2022-11-27T02:56:33.049Z,100882.56
2022-11-27T02:59:03.447Z,100879.94
2022-11-27T03:01:34.028Z,100882.56
2022-11-27T03:04:03.076Z,100885.25
2022-11-27T03:06:34.528Z,100885.91
2022-11-27T03:09:14.995Z,100884.16
2022-11-27T03:11:42.230Z,100890.16
2022-11-27T03:14:10.506Z,100883.78
2022-11-27T03:16:41.167Z,100883.78
2022-11-27T03:19:26.981Z,100871.66
2022-11-27T03:21:59.415Z,100884.63
2022-11-27T03:24:28.422Z,100879.38
2022-11-27T03:26:57.805Z,100881.16
2022-11-27T03:29:38.765Z,100870.38
2022-11-27T03:32:06.010Z,100887.16
2022-11-27T03:34:33.474Z,100882.84
2022-11-27T03:37:01.096Z,100883.50
2022-11-27T03:39:28.566Z,100875.56
2022-11-27T03:42:23.345Z,100884.16
2022-11-27T03:45:08.904Z,100888.59
2022-11-27T03:47:54.809Z,100892.91
2022-11-27T03:50:22.026Z,100893.66
2022-11-27T03:53:08.751Z,100890.19
2022-11-27T03:55:41.594Z,100881.47
2022-11-27T03:58:23.702Z,100883.31
2022-11-27T04:00:51.547Z,100890.09
2022-11-27T04:03:26.501Z,100885.69
2022-11-27T04:05:53.601Z,100891.59
2022-11-27T04:08:21.390Z,100879.41
2022-11-27T04:10:49.974Z,100882.22
2022-11-27T04:13:16.911Z,100876.97
2022-11-27T04:15:44.039Z,100882.22
2022-11-27T04:18:11.080Z,100887.28
2022-11-27T04:20:38.138Z,100885.31
2022-11-27T04:23:05.532Z,100891.31
2022-11-27T04:25:33.251Z,100885.22
2022-11-27T04:28:00.313Z,100895.75
2022-11-27T04:30:27.394Z,100894.78
2022-11-27T04:32:54.499Z,100893.75
2022-11-27T04:35:22.480Z,100899.00
2022-11-27T04:37:49.553Z,100903.44
2022-11-27T04:40:16.827Z,100906.00
2022-11-27T04:42:44.132Z,100905.03
2022-11-27T04:45:12.222Z,100903.78
2022-11-27T04:47:39.339Z,100909.81
2022-11-27T04:50:07.076Z,100908.88
2022-11-27T04:52:34.107Z,100911.50
2022-11-27T04:55:01.137Z,100916.78
2022-11-27T04:57:28.348Z,100906.81
2022-11-27T04:59:55.732Z,100911.31
2022-11-27T05:02:22.940Z,100917.69
2022-11-27T05:04:49.929Z,100921.28
2022-11-27T05:07:17.160Z,100910.75
2022-11-27T05:09:44.240Z,100911.84
2022-11-27T05:12:12.198Z,100909.22
2022-11-27T05:14:39.410Z,100912.69
2022-11-27T05:17:06.716Z,100911.59
2022-11-27T05:19:33.697Z,100908.88
2022-11-27T05:22:01.834Z,100906.06
2022-11-27T05:24:29.706Z,100910.19
2022-11-27T05:26:57.494Z,100917.03
2022-11-27T05:29:25.916Z,100911.78
2022-11-27T05:31:53.053Z,100903.25
2022-11-27T05:34:20.358Z,100910.38
2022-11-27T05:36:48.385Z,100901.84
2022-11-27T05:39:15.582Z,100905.09
2022-11-27T05:41:43.507Z,100915.44
2022-11-27T05:44:12.873Z,100913.00
2022-11-27T05:46:40.479Z,100913.75
2022-11-27T05:49:07.641Z,100914.72
2022-11-27T05:51:34.705Z,100913.75
2022-11-27T05:54:01.591Z,100912.81
2022-11-27T05:56:28.628Z,100916.38
2022-11-27T05:58:55.769Z,100917.97
2022-11-27T06:01:22.780Z,100916.31
2022-11-27T06:03:49.771Z,100921.00
2022-11-27T06:06:18.567Z,100927.84
2022-11-27T06:08:46.688Z,100925.22
2022-11-27T06:11:19.652Z,100920.22
2022-11-27T06:13:47.510Z,100924.28
2022-11-27T06:16:23.539Z,100918.84
2022-11-27T06:18:53.217Z,100928.91
2022-11-27T06:21:24.319Z,100929.66
2022-11-27T06:23:55.677Z,100932.66
2022-11-27T06:26:25.683Z,100923.81
2022-11-27T06:28:53.933Z,100922.22
2022-11-27T06:31:23.459Z,100925.50
2022-11-27T06:33:52.193Z,100929.75
2022-11-27T06:36:19.585Z,100933.78
2022-11-27T06:38:48.189Z,100927.66
2022-11-27T06:41:17.629Z,100935.16
2022-11-27T06:43:45.225Z,100929.16
2022-11-27T06:46:15.563Z,100924.84
2022-11-27T06:48:44.146Z,100929.16
2022-11-27T06:51:13.568Z,100929.44
2022-11-27T06:53:40.914Z,100931.03
2022-11-27T06:56:10.599Z,100935.16
2022-11-27T06:58:38.141Z,100942.03
2022-11-27T07:01:08.603Z,100941.75
2022-11-27T07:03:36.394Z,100944.25
2022-11-27T07:06:05.042Z,100946.41
2022-11-27T07:08:32.875Z,100952.44
2022-11-27T07:11:04.716Z,100948.19
2022-11-27T07:13:32.203Z,100949.41
2022-11-27T07:16:03.372Z,100950.81
2022-11-27T07:18:31.552Z,100949.97
2022-11-27T07:20:58.618Z,100943.03
2022-11-27T07:26:15.780Z,100954.69
2022-11-27T07:28:45.532Z,100953.09
2022-11-27T07:31:17.540Z,100949.59
2022-11-27T07:33:44.952Z,100952.06
2022-11-27T07:36:24.897Z,100949.84
2022-11-27T07:38:52.386Z,100953.59
2022-11-27T07:41:19.740Z,100948.03
2022-11-27T07:43:47.090Z,100937.91
2022-11-27T07:46:16.929Z,100931.38
2022-11-27T07:48:44.439Z,100936.91
2022-11-27T07:51:13.961Z,100944.81
2022-11-27T07:53:42.170Z,100946.59
2022-11-27T07:56:14.066Z,100941.13
2022-11-27T07:58:41.460Z,100944.94
2022-11-27T08:01:10.496Z,100945.16
2022-11-27T08:03:37.974Z,100941.47
2022-11-27T08:06:05.560Z,100947.19
2022-11-27T08:08:33.281Z,100949.41
2022-11-27T08:11:00.960Z,100951.22
2022-11-27T08:13:27.960Z,100952.81
2022-11-27T08:15:55.181Z,100949.88
2022-11-27T08:18:23.908Z,100937.06
2022-11-27T08:20:51.235Z,100941.66
2022-11-27T08:23:18.452Z,100942.78
2022-11-27T08:25:45.491Z,100930.66
2022-11-27T08:28:12.856Z,100934.69
2022-11-27T08:30:40.397Z,100941.31
2022-11-27T08:33:07.338Z,100930.47
2022-11-27T08:35:34.294Z,100933.03
2022-11-27T08:38:01.524Z,100936.59
2022-11-27T08:40:28.552Z,100940.09
2022-11-27T08:42:55.587Z,100939.88
2022-11-27T08:45:22.814Z,100942.31
2022-11-27T08:47:49.875Z,100937.78
2022-11-27T08:50:16.896Z,100946.53
2022-11-27T08:52:44.123Z,100935.03
2022-11-27T08:55:11.127Z,100939.25
2022-11-27T08:57:38.337Z,100939.78
2022-11-27T09:00:08.923Z,100938.09
2022-11-27T09:02:35.882Z,100938.63
2022-11-27T09:05:05.651Z,100945.06
2022-11-27T09:07:32.737Z,100934.72
2022-11-27T09:09:59.723Z,100935.91
2022-11-27T09:12:27.734Z,100941.59
2022-11-27T09:14:54.830Z,100946.56
2022-11-27T09:17:21.845Z,100934.84
2022-11-27T09:19:49.028Z,100937.91
2022-11-27T09:22:16.516Z,100933.28
2022-11-27T09:24:43.583Z,100928.91
2022-11-27T09:27:11.412Z,100937.28
2022-11-27T09:29:38.563Z,100929.25
2022-11-27T09:32:05.924Z,100931.38
2022-11-27T09:34:37.659Z,100931.78
2022-11-27T09:37:05.408Z,100930.94
2022-11-27T09:39:34.401Z,100925.44
2022-11-27T09:42:06.455Z,100934.53
2022-11-27T09:44:53.165Z,100931.44
2022-11-27T09:47:31.390Z,100927.00
2022-11-27T09:50:04.784Z,100927.72
2022-11-27T09:52:55.396Z,100926.16
2022-11-27T09:55:41.802Z,100919.28
2022-11-27T09:58:19.585Z,100925.00
2022-11-27T10:00:47.896Z,100918.66
2022-11-27T10:03:17.149Z,100923.47
2022-11-27T10:06:23.361Z,100923.25
2022-11-27T10:09:13.075Z,100929.69
2022-11-27T10:12:02.075Z,100933.19
2022-11-27T10:14:34.169Z,100920.94
2022-11-27T10:17:32.844Z,100938.56
2022-11-27T10:20:32.133Z,100928.72
2022-11-27T10:23:17.274Z,100924.66
2022-11-27T10:26:19.439Z,100929.47
2022-11-27T10:29:00.498Z,100922.56
2022-11-27T10:31:43.193Z,100916.97
2022-11-27T10:34:35.093Z,100918.53
2022-11-27T10:37:08.559Z,100915.16
2022-11-27T10:39:42.355Z,100916.41
2022-11-27T10:42:35.598Z,100915.34
2022-11-27T10:45:06.740Z,100924.75
2022-11-27T10:47:34.346Z,100920.16
2022-11-27T10:50:04.160Z,100926.50
2022-11-27T10:52:32.092Z,100921.97
2022-11-27T10:55:10.056Z,100921.97
2022-11-27T10:57:49.362Z,100922.28
2022-11-27T11:00:25.132Z,100928.03
2022-11-27T11:03:03.884Z,100905.41
2022-11-27T11:05:45.519Z,100919.84
2022-11-27T11:08:20.279Z,100925.31
2022-11-27T11:10:54.086Z,100916.16
2022-11-27T11:13:29.498Z,100919.34
2022-11-27T11:15:58.047Z,100916.06
2022-11-27T11:18:29.777Z,100919.91
2022-11-27T11:20:59.170Z,100922.09
2022-11-27T11:23:34.652Z,100912.69
2022-11-27T11:26:09.935Z,100924.66
2022-11-27T11:28:47.514Z,100919.78
2022-11-27T11:31:18.993Z,100932.16
2022-11-27T11:34:23.833Z,100911.25
2022-11-27T11:36:58.287Z,100924.44
2022-11-27T11:39:30.997Z,100918.75
2022-11-27T11:41:58.729Z,100920.09
2022-11-27T11:44:33.647Z,100919.38
2022-11-27T11:47:00.435Z,100922.03
2022-11-27T11:49:28.884Z,100929.53
2022-11-27T11:52:05.185Z,100941.47
2022-11-27T11:54:59.532Z,100935.09
2022-11-27T11:57:58.982Z,100932.59
2022-11-27T12:00:48.691Z,100942.50
2022-11-27T12:03:30.018Z,100947.94
2022-11-27T12:06:01.440Z,100950.75
2022-11-27T12:08:43.727Z,100945.81
2022-11-27T12:11:40.113Z,100949.31
2022-11-27T12:14:16.682Z,100951.22
2022-11-27T12:17:03.586Z,100950.56
2022-11-27T12:19:46.648Z,100958.81
2022-11-27T12:22:25.387Z,100955.53
2022-11-27T12:25:01.694Z,100958.81
2022-11-27T12:28:04.277Z,100953.41
2022-11-27T12:31:09.015Z,100949.94
2022-11-27T12:34:01.189Z,100956.16
2022-11-27T12:36:28.203Z,100964.94
2022-11-27T12:39:11.747Z,100961.41
2022-11-27T12:42:01.710Z,100968.72
2022-11-27T12:44:48.305Z,100969.97
2022-11-27T12:47:42.091Z,100975.09
2022-11-27T12:50:20.822Z,100967.50
2022-11-27T12:52:56.046Z,100971.19
2022-11-27T12:55:27.593Z,100961.25
2022-11-27T12:58:03.742Z,100967.44
2022-11-27T13:00:32.737Z,100971.78
2022-11-27T13:03:06.964Z,100970.84
2022-11-27T13:06:01.182Z,100970.75
2022-11-27T13:08:49.605Z,100970.53
2022-11-27T13:11:21.042Z,100975.81
2022-11-27T13:14:14.914Z,100974.97
2022-11-27T13:16:46.767Z,100971.13
2022-11-27T13:19:35.991Z,100980.00
2022-11-27T13:22:04.870Z,100979.38
2022-11-27T13:24:31.977Z,100968.91
2022-11-27T13:27:18.477Z,100970.72
2022-11-27T13:29:54.377Z,100965.81
2022-11-27T13:32:27.693Z,100970.47
2022-11-27T13:35:00.778Z,100976.56
2022-11-27T13:37:37.601Z,100972.06
2022-11-27T13:40:04.823Z,100977.22
2022-11-27T13:42:35.423Z,100983.63
2022-11-27T13:45:06.699Z,100974.97
2022-11-27T13:47:40.034Z,100985.03
2022-11-27T13:50:12.966Z,100979.13
2022-11-27T13:52:51.891Z,100971.41
2022-11-27T13:55:27.922Z,100968.66
2022-11-27T13:57:57.582Z,100977.41
2022-11-27T14:00:35.242Z,100979.97
2022-11-27T14:03:02.984Z,100972.13
2022-11-27T14:05:44.188Z,100985.78
2022-11-27T14:08:27.691Z,100986.63
2022-11-27T14:11:04.256Z,100985.56
2022-11-27T14:13:50.667Z,100980.97
2022-11-27T14:16:33.443Z,100977.66
2022-11-27T14:19:02.554Z,100980.72
2022-11-27T14:21:36.045Z,100982.31
2022-11-27T14:24:07.114Z,100979.22
2022-11-27T14:26:34.415Z,100997.66
2022-11-27T14:29:01.485Z,100993.88
2022-11-27T14:31:35.436Z,100976.28
2022-11-27T14:34:24.352Z,100984.28
2022-11-27T14:36:53.072Z,100986.72
2022-11-27T14:39:31.675Z,100985.03
2022-11-27T14:42:05.826Z,100972.56
2022-11-27T14:44:33.146Z,100998.41
2022-11-27T14:47:05.990Z,100992.38
2022-11-27T14:49:36.876Z,100987.13
2022-11-27T14:52:06.497Z,100986.06
2022-11-27T14:54:38.372Z,100982.59
2022-11-27T14:57:06.430Z,100987.78
2022-11-27T14:59:36.239Z,100983.56
2022-11-27T15:02:18.686Z,100972.63
2022-11-27T15:04:46.629Z,100991.75
2022-11-27T15:07:21.760Z,100975.88
2022-11-27T15:09:53.442Z,100970.22
2022-11-27T15:12:27.905Z,100983.94
2022-11-27T15:15:15.646Z,100981.22
2022-11-27T15:20:37.708Z,100972.63
2022-11-27T15:23:18.224Z,100975.59
2022-11-27T15:25:48.301Z,100971.44
2022-11-27T15:28:29.267Z,100986.00
2022-11-27T15:30:57.226Z,100982.63
2022-11-27T15:33:27.413Z,100985.25
2022-11-27T15:36:09.132Z,100971.53
2022-11-27T15:38:36.233Z,100976.72
2022-11-27T15:41:04.559Z,100975.13
2022-11-27T15:43:31.500Z,100986.97
2022-11-27T15:45:59.119Z,100983.59
2022-11-27T15:48:30.001Z,100972.69
2022-11-27T15:50:57.427Z,100985.94
2022-11-27T15:53:28.822Z,100985.94
2022-11-27T15:55:58.883Z,100990.91
2022-11-27T15:58:26.212Z,100988.16
2022-11-27T16:00:55.389Z,100971.91
2022-11-27T16:03:22.642Z,100992.38
2022-11-27T16:05:51.127Z,100990.72
2022-11-27T16:08:18.216Z,100977.72
2022-11-27T16:10:45.286Z,101001.88
2022-11-27T16:13:12.751Z,100995.13
2022-11-27T16:15:39.834Z,101007.66
2022-11-27T16:18:08.080Z,101002.50
2022-11-27T16:20:35.237Z,100982.84
2022-11-27T16:23:02.244Z,100979.44
2022-11-27T16:25:29.420Z,100975.88
2022-11-27T16:28:02.510Z,100996.75
2022-11-27T16:30:31.336Z,100983.59
2022-11-27T16:32:58.666Z,101003.13
2022-11-27T16:35:26.091Z,101005.00
2022-11-27T16:37:53.832Z,101009.53
2022-11-27T16:40:21.880Z,101002.03
2022-11-27T16:42:49.267Z,100999.75
2022-11-27T16:45:26.375Z,101008.41
2022-11-27T16:47:54.497Z,101008.41
2022-11-27T16:50:31.287Z,100998.50
2022-11-27T16:53:04.513Z,101010.19
2022-11-27T16:55:37.795Z,100996.56
2022-11-27T16:58:11.276Z,101002.78
2022-11-27T17:00:39.610Z,101016.41
2022-11-27T17:03:08.093Z,101004.47
2022-11-27T17:05:41.427Z,101015.34
2022-11-27T17:08:11.407Z,101017.06
2022-11-27T17:10:46.905Z,101018.53
2022-11-27T17:13:14.170Z,101000.78
2022-11-27T17:15:41.654Z,101014.97
2022-11-27T17:18:10.356Z,101008.13
2022-11-27T17:20:38.842Z,101013.25
2022-11-27T17:23:15.187Z,101020.13
2022-11-27T17:25:42.487Z,101019.41
2022-11-27T17:28:10.499Z,101017.69
2022-11-27T17:30:41.158Z,101014.13
2022-11-27T17:33:09.046Z,101002.94
2022-11-27T17:35:36.366Z,101013.66
2022-11-27T17:38:09.825Z,101015.66
2022-11-27T17:40:43.159Z,101008.97
2022-11-27T17:43:12.355Z,101018.09
2022-11-27T17:45:42.672Z,101013.75
2022-11-27T17:48:11.971Z,101013.75
2022-11-27T17:53:20.844Z,101015.84
2022-11-27T17:55:48.311Z,101012.38
2022-11-27T17:58:23.862Z,101011.72
2022-11-27T18:00:58.053Z,101016.72
2022-11-27T18:03:30.314Z,101022.53
2022-11-27T18:05:57.929Z,101034.84
2022-11-27T18:08:36.699Z,101027.97
2022-11-27T18:11:10.563Z,101018.59
2022-11-27T18:13:46.735Z,101025.16
2022-11-27T18:16:24.108Z,101028.66
2022-11-27T18:18:51.906Z,101027.97
2022-11-27T18:21:24.464Z,101029.69
2022-11-27T18:24:21.858Z,101038.22
2022-11-27T18:27:07.168Z,101027.88
2022-11-27T18:29:30.676Z,101034.97
2022-11-27T18:31:58.175Z,101033.44
2022-11-27T18:34:32.158Z,101023.19
2022-11-27T18:37:03.625Z,101007.88
2022-11-27T18:39:33.205Z,101025.19
2022-11-27T18:42:02.687Z,101033.59
2022-11-27T18:44:29.884Z,101031.03
2022-11-27T18:46:58.865Z,101028.13
2022-11-27T18:49:34.796Z,101026.22
2022-11-27T18:52:02.419Z,101020.31
2022-11-27T18:54:30.696Z,101022.97
2022-11-27T18:56:58.111Z,101023.31
2022-11-27T18:59:25.759Z,101028.03
2022-11-27T19:01:53.740Z,101024.56
2022-11-27T19:04:21.015Z,101026.72
2022-11-27T19:06:48.153Z,101029.34
2022-11-27T19:09:15.761Z,101030.94
2022-11-27T19:11:43.823Z,101024.09
2022-11-27T19:14:11.512Z,101044.59
2022-11-27T19:16:45.549Z,101033.94
2022-11-27T19:22:07.936Z,101041.00
2022-11-27T19:24:35.701Z,101035.94
2022-11-27T19:27:03.726Z,101038.00
2022-11-27T19:29:31.404Z,101041.09
2022-11-27T19:32:01.826Z,101030.19
2022-11-27T19:34:29.278Z,101032.06
2022-11-27T19:37:06.511Z,101020.41
2022-11-27T19:39:34.143Z,101033.09
2022-11-27T19:42:01.363Z,101035.00
2022-11-27T19:44:30.692Z,101035.53
2022-11-27T19:46:59.461Z,101033.09
2022-11-27T19:49:33.360Z,101041.41
2022-11-27T19:52:01.785Z,101035.66
2022-11-27T19:54:29.316Z,101027.56
2022-11-27T19:57:02.843Z,101046.41
2022-11-27T19:59:34.200Z,101038.66
2022-11-27T20:02:01.553Z,101025.41
2022-11-27T20:04:36.217Z,101041.59
2022-11-27T20:07:04.185Z,101036.34
2022-11-27T20:09:31.359Z,101046.41
2022-11-27T20:12:00.441Z,101044.69
2022-11-27T20:14:28.417Z,101032.75
2022-11-27T20:16:56.091Z,101038.09
2022-11-27T20:19:23.276Z,101032.84
2022-11-27T20:21:54.556Z,101039.72
2022-11-27T20:24:21.858Z,101046.47
2022-11-27T20:26:51.540Z,101036.81
2022-11-27T20:29:21.038Z,101040.09
2022-11-27T20:34:32.365Z,101047.72
2022-11-27T20:36:59.454Z,101038.41
2022-11-27T20:39:28.801Z,101057.00
2022-11-27T20:41:56.101Z,101054.50
2022-11-27T20:44:24.063Z,101045.28
2022-11-27T20:46:52.419Z,101056.56
2022-11-27T20:49:20.806Z,101064.06
2022-11-27T20:51:51.064Z,101065.88
2022-11-27T20:54:23.057Z,101058.44
2022-11-27T20:56:51.527Z,101070.19
2022-11-27T20:59:20.002Z,101071.78
2022-11-27T21:01:47.738Z,101064.00
2022-11-27T21:04:24.023Z,101070.38
2022-11-27T21:06:52.969Z,101069.72
2022-11-27T21:09:23.219Z,101063.59
2022-11-27T21:11:50.753Z,101071.50
2022-11-27T21:14:19.019Z,101068.22
2022-11-27T21:16:48.853Z,101064.75
2022-11-27T21:19:22.258Z,101077.72
2022-11-27T21:21:50.410Z,101081.19
2022-11-27T21:24:18.308Z,101064.75
2022-11-27T21:26:46.588Z,101073.84
2022-11-27T21:29:15.431Z,101078.28
2022-11-27T21:31:47.294Z,101072.91
2022-11-27T21:34:15.926Z,101075.84
2022-11-27T21:36:44.349Z,101079.13
2022-11-27T21:39:12.913Z,101084.13
2022-11-27T21:41:41.138Z,101084.13
2022-11-27T21:44:08.134Z,101080.53
2022-11-27T21:46:35.755Z,101079.78
2022-11-27T21:49:05.778Z,101077.44
2022-11-27T21:51:32.765Z,101079.03
2022-11-27T21:54:07.043Z,101078.09
2022-11-27T21:56:37.703Z,101081.38
2022-11-27T21:59:05.661Z,101083.91
2022-11-27T22:01:32.999Z,101081.84
2022-11-27T22:04:00.544Z,101088.22
2022-11-27T22:06:29.588Z,101083.16
2022-11-27T22:08:58.778Z,101088.81
2022-11-27T22:11:30.405Z,101095.97
2022-11-27T22:13:59.411Z,101099.53
2022-11-27T22:16:28.285Z,101083.91
2022-11-27T22:18:56.597Z,101095.56
2022-11-27T22:21:23.998Z,101092.03
2022-11-27T22:23:52.391Z,101089.19
2022-11-27T22:26:21.065Z,101093.50
2022-11-27T22:28:48.761Z,101089.06
2022-11-27T22:31:21.532Z,101079.56
2022-11-27T22:33:49.417Z,101092.66
2022-11-27T22:36:19.767Z,101088.44
2022-11-27T22:38:49.162Z,101084.28
2022-11-27T22:41:18.434Z,101096.41
2022-11-27T22:43:46.624Z,101096.97
2022-11-27T22:46:19.868Z,101091.63
2022-11-27T22:48:47.176Z,101089.06
2022-11-27T22:51:14.610Z,101099.63
2022-11-27T22:53:41.780Z,101096.97
2022-11-27T22:56:11.837Z,101103.84
2022-11-27T22:58:41.776Z,101085.78
2022-11-27T23:01:15.185Z,101095.09
2022-11-27T23:03:42.436Z,101108.38
2022-11-27T23:06:12.343Z,101115.06
2022-11-27T23:08:40.726Z,101102.72
2022-11-27T23:11:08.955Z,101108.94
2022-11-27T23:13:35.955Z,101107.25
2022-11-27T23:16:04.610Z,101101.13
2022-11-27T23:18:31.973Z,101104.81
2022-11-27T23:20:58.972Z,101109.78
2022-11-27T23:23:27.174Z,101112.44
2022-11-27T23:25:54.127Z,101119.28
2022-11-27T23:28:21.251Z,101110.44
2022-11-27T23:30:50.303Z,101109.59
2022-11-27T23:33:26.112Z,101120.13
2022-11-27T23:36:02.844Z,101118.44
2022-11-27T23:38:30.101Z,101109.88
2022-11-27T23:41:07.895Z,101128.31
2022-11-27T23:43:35.266Z,101129.16
2022-11-27T23:46:07.218Z,101125.50
2022-11-27T23:48:34.766Z,101128.03
2022-11-27T23:51:14.198Z,101140.25
2022-11-27T23:53:42.003Z,101139.41
2022-11-27T23:56:12.272Z,101140.09
2022-11-27T23:58:45.199Z,101135.00
